sensor_id;sensor_type;location;lat;lon;timestamp;P1;durP1;ratioP1;P2;durP2;ratioP2
10269;SDS011;70826;50.930;5.334;2023-07-20T00:00:39;2.35;;;2.15;;
10269;SDS011;70826;50.930;5.334;2023-07-20T00:03:14;1.98;;;1.88;;
10269;SDS011;70826;50.930;5.334;2023-07-20T00:05:43;1.92;;;1.83;;
10269;SDS011;70826;50.930;5.334;2023-07-20T00:08:13;2.25;;;2.05;;
10269;SDS011;70826;50.930;5.334;2023-07-20T00:10:46;2.30;;;2.10;;
10269;SDS011;70826;50.930;5.334;2023-07-20T00:13:14;2.03;;;1.92;;
10269;SDS011;70826;50.930;5.334;2023-07-20T00:15:46;2.10;;;2.00;;
10269;SDS011;70826;50.930;5.334;2023-07-20T00:18:14;2.10;;;2.00;;
10269;SDS011;70826;50.930;5.334;2023-07-20T00:20:43;2.35;;;2.15;;
10269;SDS011;70826;50.930;5.334;2023-07-20T00:23:09;2.28;;;2.08;;
10269;SDS011;70826;50.930;5.334;2023-07-20T00:25:35;2.35;;;2.15;;
10269;SDS011;70826;50.930;5.334;2023-07-20T00:28:04;2.20;;;2.00;;
10269;SDS011;70826;50.930;5.334;2023-07-20T00:30:29;1.90;;;1.80;;
10269;SDS011;70826;50.930;5.334;2023-07-20T00:32:55;1.95;;;1.83;;
10269;SDS011;70826;50.930;5.334;2023-07-20T00:35:23;2.10;;;2.00;;
10269;SDS011;70826;50.930;5.334;2023-07-20T00:37:51;1.95;;;1.85;;
10269;SDS011;70826;50.930;5.334;2023-07-20T00:40:17;2.20;;;2.03;;
10269;SDS011;70826;50.930;5.334;2023-07-20T00:42:48;2.10;;;2.00;;
10269;SDS011;70826;50.930;5.334;2023-07-20T00:45:18;1.83;;;1.73;;
10269;SDS011;70826;50.930;5.334;2023-07-20T00:47:49;1.95;;;1.80;;
10269;SDS011;70826;50.930;5.334;2023-07-20T00:50:19;1.80;;;1.70;;
10269;SDS011;70826;50.930;5.334;2023-07-20T00:52:45;2.00;;;1.90;;
10269;SDS011;70826;50.930;5.334;2023-07-20T00:55:14;1.83;;;1.73;;
10269;SDS011;70826;50.930;5.334;2023-07-20T00:57:48;1.90;;;1.80;;
10269;SDS011;70826;50.930;5.334;2023-07-20T01:00:15;2.05;;;1.90;;
10269;SDS011;70826;50.930;5.334;2023-07-20T01:02:41;1.90;;;1.80;;
10269;SDS011;70826;50.930;5.334;2023-07-20T01:05:07;2.03;;;1.90;;
10269;SDS011;70826;50.930;5.334;2023-07-20T01:07:38;1.88;;;1.77;;
10269;SDS011;70826;50.930;5.334;2023-07-20T01:10:24;1.88;;;1.77;;
10269;SDS011;70826;50.930;5.334;2023-07-20T01:12:57;1.90;;;1.80;;
10269;SDS011;70826;50.930;5.334;2023-07-20T01:15:24;2.00;;;1.90;;
10269;SDS011;70826;50.930;5.334;2023-07-20T01:17:57;1.80;;;1.70;;
10269;SDS011;70826;50.930;5.334;2023-07-20T01:20:26;1.83;;;1.73;;
10269;SDS011;70826;50.930;5.334;2023-07-20T01:25:34;1.90;;;1.80;;
10269;SDS011;70826;50.930;5.334;2023-07-20T01:33:49;1.80;;;1.70;;
10269;SDS011;70826;50.930;5.334;2023-07-20T01:36:17;1.83;;;1.73;;
10269;SDS011;70826;50.930;5.334;2023-07-20T01:38:47;1.88;;;1.77;;
10269;SDS011;70826;50.930;5.334;2023-07-20T01:41:14;1.92;;;1.83;;
10269;SDS011;70826;50.930;5.334;2023-07-20T01:43:42;1.75;;;1.65;;
10269;SDS011;70826;50.930;5.334;2023-07-20T01:46:08;1.67;;;1.58;;
10269;SDS011;70826;50.930;5.334;2023-07-20T01:48:38;1.90;;;1.80;;
10269;SDS011;70826;50.930;5.334;2023-07-20T01:51:06;1.70;;;1.60;;
10269;SDS011;70826;50.930;5.334;2023-07-20T01:53:34;1.95;;;1.85;;
10269;SDS011;70826;50.930;5.334;2023-07-20T01:56:01;2.00;;;1.90;;
10269;SDS011;70826;50.930;5.334;2023-07-20T01:58:27;2.03;;;1.83;;
10269;SDS011;70826;50.930;5.334;2023-07-20T02:00:55;1.80;;;1.70;;
10269;SDS011;70826;50.930;5.334;2023-07-20T02:03:24;2.05;;;1.85;;
10269;SDS011;70826;50.930;5.334;2023-07-20T02:05:52;2.03;;;1.83;;
10269;SDS011;70826;50.930;5.334;2023-07-20T02:08:20;1.75;;;1.65;;
10269;SDS011;70826;50.930;5.334;2023-07-20T02:10:48;1.70;;;1.60;;
10269;SDS011;70826;50.930;5.334;2023-07-20T02:13:15;1.95;;;1.85;;
10269;SDS011;70826;50.930;5.334;2023-07-20T02:15:45;1.80;;;1.70;;
10269;SDS011;70826;50.930;5.334;2023-07-20T02:18:14;1.88;;;1.77;;
10269;SDS011;70826;50.930;5.334;2023-07-20T02:20:43;1.80;;;1.70;;
10269;SDS011;70826;50.930;5.334;2023-07-20T02:23:11;1.80;;;1.60;;
10269;SDS011;70826;50.930;5.334;2023-07-20T02:25:37;2.10;;;1.90;;
10269;SDS011;70826;50.930;5.334;2023-07-20T02:28:07;1.80;;;1.70;;
10269;SDS011;70826;50.930;5.334;2023-07-20T02:30:34;1.60;;;1.50;;
10269;SDS011;70826;50.930;5.334;2023-07-20T02:33:02;1.80;;;1.70;;
10269;SDS011;70826;50.930;5.334;2023-07-20T02:35:33;1.90;;;1.80;;
10269;SDS011;70826;50.930;5.334;2023-07-20T02:38:02;1.88;;;1.77;;
10269;SDS011;70826;50.930;5.334;2023-07-20T02:40:28;1.67;;;1.58;;
10269;SDS011;70826;50.930;5.334;2023-07-20T02:42:59;1.70;;;1.60;;
10269;SDS011;70826;50.930;5.334;2023-07-20T02:45:27;1.85;;;1.75;;
10269;SDS011;70826;50.930;5.334;2023-07-20T02:47:53;1.88;;;1.77;;
10269;SDS011;70826;50.930;5.334;2023-07-20T02:50:21;1.83;;;1.73;;
10269;SDS011;70826;50.930;5.334;2023-07-20T02:52:47;2.15;;;1.90;;
10269;SDS011;70826;50.930;5.334;2023-07-20T02:55:13;1.83;;;1.73;;
10269;SDS011;70826;50.930;5.334;2023-07-20T02:57:44;1.80;;;1.70;;
10269;SDS011;70826;50.930;5.334;2023-07-20T03:00:12;1.85;;;1.75;;
10269;SDS011;70826;50.930;5.334;2023-07-20T03:02:40;1.73;;;1.63;;
10269;SDS011;70826;50.930;5.334;2023-07-20T03:05:06;1.70;;;1.60;;
10269;SDS011;70826;50.930;5.334;2023-07-20T03:07:35;1.77;;;1.67;;
10269;SDS011;70826;50.930;5.334;2023-07-20T03:10:01;1.90;;;1.80;;
10269;SDS011;70826;50.930;5.334;2023-07-20T03:12:29;1.73;;;1.63;;
10269;SDS011;70826;50.930;5.334;2023-07-20T03:14:59;1.80;;;1.70;;
10269;SDS011;70826;50.930;5.334;2023-07-20T03:17:29;1.80;;;1.70;;
10269;SDS011;70826;50.930;5.334;2023-07-20T03:19:58;1.83;;;1.73;;
10269;SDS011;70826;50.930;5.334;2023-07-20T03:22:26;1.73;;;1.63;;
10269;SDS011;70826;50.930;5.334;2023-07-20T03:24:52;1.95;;;1.85;;
10269;SDS011;70826;50.930;5.334;2023-07-20T03:27:20;1.90;;;1.80;;
10269;SDS011;70826;50.930;5.334;2023-07-20T03:29:46;2.00;;;1.90;;
10269;SDS011;70826;50.930;5.334;2023-07-20T03:32:14;1.88;;;1.77;;
10269;SDS011;70826;50.930;5.334;2023-07-20T03:34:46;1.98;;;1.88;;
10269;SDS011;70826;50.930;5.334;2023-07-20T03:37:12;2.08;;;1.98;;
10269;SDS011;70826;50.930;5.334;2023-07-20T03:39:41;2.00;;;1.90;;
10269;SDS011;70826;50.930;5.334;2023-07-20T03:42:11;1.90;;;1.80;;
10269;SDS011;70826;50.930;5.334;2023-07-20T03:44:37;1.90;;;1.80;;
10269;SDS011;70826;50.930;5.334;2023-07-20T03:47:06;1.90;;;1.80;;
10269;SDS011;70826;50.930;5.334;2023-07-20T03:49:36;1.70;;;1.60;;
10269;SDS011;70826;50.930;5.334;2023-07-20T03:52:05;2.00;;;1.67;;
10269;SDS011;70826;50.930;5.334;2023-07-20T03:54:33;1.85;;;1.75;;
10269;SDS011;70826;50.930;5.334;2023-07-20T03:57:04;1.73;;;1.63;;
10269;SDS011;70826;50.930;5.334;2023-07-20T03:59:33;2.00;;;1.90;;
10269;SDS011;70826;50.930;5.334;2023-07-20T04:02:02;1.95;;;1.85;;
10269;SDS011;70826;50.930;5.334;2023-07-20T04:04:28;1.80;;;1.70;;
10269;SDS011;70826;50.930;5.334;2023-07-20T04:06:54;1.83;;;1.70;;
10269;SDS011;70826;50.930;5.334;2023-07-20T04:09:22;2.08;;;1.98;;
10269;SDS011;70826;50.930;5.334;2023-07-20T04:11:48;1.70;;;1.60;;
10269;SDS011;70826;50.930;5.334;2023-07-20T04:14:17;1.80;;;1.70;;
10269;SDS011;70826;50.930;5.334;2023-07-20T04:16:46;1.73;;;1.63;;
10269;SDS011;70826;50.930;5.334;2023-07-20T04:19:16;2.05;;;1.88;;
10269;SDS011;70826;50.930;5.334;2023-07-20T04:21:42;1.80;;;1.70;;
10269;SDS011;70826;50.930;5.334;2023-07-20T04:24:11;1.90;;;1.70;;
10269;SDS011;70826;50.930;5.334;2023-07-20T04:26:39;1.77;;;1.67;;
10269;SDS011;70826;50.930;5.334;2023-07-20T04:29:05;1.75;;;1.65;;
10269;SDS011;70826;50.930;5.334;2023-07-20T04:31:31;2.20;;;2.00;;
10269;SDS011;70826;50.930;5.334;2023-07-20T04:33:58;1.83;;;1.70;;
10269;SDS011;70826;50.930;5.334;2023-07-20T04:36:26;3.58;;;1.80;;
10269;SDS011;70826;50.930;5.334;2023-07-20T04:38:51;1.65;;;1.55;;
10269;SDS011;70826;50.930;5.334;2023-07-20T04:41:20;1.80;;;1.70;;
10269;SDS011;70826;50.930;5.334;2023-07-20T04:43:52;1.80;;;1.70;;
10269;SDS011;70826;50.930;5.334;2023-07-20T04:46:18;2.10;;;1.90;;
10269;SDS011;70826;50.930;5.334;2023-07-20T04:48:44;1.90;;;1.70;;
10269;SDS011;70826;50.930;5.334;2023-07-20T04:51:13;1.77;;;1.67;;
10269;SDS011;70826;50.930;5.334;2023-07-20T04:53:42;1.83;;;1.73;;
10269;SDS011;70826;50.930;5.334;2023-07-20T04:56:10;1.90;;;1.80;;
10269;SDS011;70826;50.930;5.334;2023-07-20T04:58:38;1.70;;;1.60;;
10269;SDS011;70826;50.930;5.334;2023-07-20T05:01:03;2.05;;;1.88;;
10269;SDS011;70826;50.930;5.334;2023-07-20T05:03:31;1.80;;;1.70;;
10269;SDS011;70826;50.930;5.334;2023-07-20T05:05:57;2.15;;;1.80;;
10269;SDS011;70826;50.930;5.334;2023-07-20T05:08:23;1.70;;;1.60;;
10269;SDS011;70826;50.930;5.334;2023-07-20T05:10:54;1.95;;;1.80;;
10269;SDS011;70826;50.930;5.334;2023-07-20T05:13:19;2.00;;;1.90;;
10269;SDS011;70826;50.930;5.334;2023-07-20T05:15:50;1.80;;;1.70;;
10269;SDS011;70826;50.930;5.334;2023-07-20T05:18:17;2.28;;;1.92;;
10269;SDS011;70826;50.930;5.334;2023-07-20T05:20:49;1.90;;;1.80;;
10269;SDS011;70826;50.930;5.334;2023-07-20T05:23:16;1.65;;;1.55;;
10269;SDS011;70826;50.930;5.334;2023-07-20T05:25:45;1.90;;;1.80;;
10269;SDS011;70826;50.930;5.334;2023-07-20T05:28:14;1.85;;;1.73;;
10269;SDS011;70826;50.930;5.334;2023-07-20T05:30:45;2.10;;;1.90;;
10269;SDS011;70826;50.930;5.334;2023-07-20T05:33:10;1.90;;;1.80;;
10269;SDS011;70826;50.930;5.334;2023-07-20T05:35:38;1.88;;;1.77;;
10269;SDS011;70826;50.930;5.334;2023-07-20T05:38:05;1.92;;;1.83;;
10269;SDS011;70826;50.930;5.334;2023-07-20T05:40:32;2.08;;;1.90;;
10269;SDS011;70826;50.930;5.334;2023-07-20T05:43:01;1.88;;;1.77;;
10269;SDS011;70826;50.930;5.334;2023-07-20T05:45:27;2.60;;;1.70;;
10269;SDS011;70826;50.930;5.334;2023-07-20T05:47:52;2.08;;;1.92;;
10269;SDS011;70826;50.930;5.334;2023-07-20T05:50:18;1.83;;;1.73;;
10269;SDS011;70826;50.930;5.334;2023-07-20T05:52:46;2.00;;;1.90;;
10269;SDS011;70826;50.930;5.334;2023-07-20T05:55:15;2.28;;;1.80;;
10269;SDS011;70826;50.930;5.334;2023-07-20T05:57:43;1.95;;;1.85;;
10269;SDS011;70826;50.930;5.334;2023-07-20T06:00:09;1.85;;;1.75;;
10269;SDS011;70826;50.930;5.334;2023-07-20T06:02:38;2.45;;;1.77;;
10269;SDS011;70826;50.930;5.334;2023-07-20T06:05:07;1.90;;;1.80;;
10269;SDS011;70826;50.930;5.334;2023-07-20T06:07:39;1.95;;;1.85;;
10269;SDS011;70826;50.930;5.334;2023-07-20T06:10:05;2.80;;;2.00;;
10269;SDS011;70826;50.930;5.334;2023-07-20T06:12:34;1.90;;;1.80;;
10269;SDS011;70826;50.930;5.334;2023-07-20T06:15:12;2.00;;;1.90;;
10269;SDS011;70826;50.930;5.334;2023-07-20T06:17:54;2.10;;;1.90;;
10269;SDS011;70826;50.930;5.334;2023-07-20T06:20:25;2.08;;;1.98;;
10269;SDS011;70826;50.930;5.334;2023-07-20T06:22:56;2.20;;;2.00;;
10269;SDS011;70826;50.930;5.334;2023-07-20T06:25:21;2.50;;;2.30;;
10269;SDS011;70826;50.930;5.334;2023-07-20T06:27:50;2.15;;;2.05;;
10269;SDS011;70826;50.930;5.334;2023-07-20T06:30:19;2.22;;;2.13;;
10269;SDS011;70826;50.930;5.334;2023-07-20T06:32:51;2.53;;;2.33;;
10269;SDS011;70826;50.930;5.334;2023-07-20T06:35:19;2.40;;;2.00;;
10269;SDS011;70826;50.930;5.334;2023-07-20T06:37:50;2.28;;;2.17;;
10269;SDS011;70826;50.930;5.334;2023-07-20T06:40:16;2.42;;;2.22;;
10269;SDS011;70826;50.930;5.334;2023-07-20T06:42:44;2.45;;;2.20;;
10269;SDS011;70826;50.930;5.334;2023-07-20T06:45:13;2.70;;;2.50;;
10269;SDS011;70826;50.930;5.334;2023-07-20T06:47:44;2.70;;;2.50;;
10269;SDS011;70826;50.930;5.334;2023-07-20T06:50:11;2.42;;;2.22;;
10269;SDS011;70826;50.930;5.334;2023-07-20T06:52:41;2.50;;;2.30;;
10269;SDS011;70826;50.930;5.334;2023-07-20T06:55:09;2.30;;;2.20;;
10269;SDS011;70826;50.930;5.334;2023-07-20T06:57:37;2.50;;;2.30;;
10269;SDS011;70826;50.930;5.334;2023-07-20T07:00:08;2.35;;;2.25;;
10269;SDS011;70826;50.930;5.334;2023-07-20T07:02:40;2.40;;;2.22;;
10269;SDS011;70826;50.930;5.334;2023-07-20T07:05:05;2.50;;;2.30;;
10269;SDS011;70826;50.930;5.334;2023-07-20T07:07:32;2.60;;;2.40;;
10269;SDS011;70826;50.930;5.334;2023-07-20T07:10:00;2.53;;;2.33;;
10269;SDS011;70826;50.930;5.334;2023-07-20T07:12:32;2.35;;;2.25;;
10269;SDS011;70826;50.930;5.334;2023-07-20T07:15:01;2.58;;;2.38;;
10269;SDS011;70826;50.930;5.334;2023-07-20T07:17:27;2.40;;;2.25;;
10269;SDS011;70826;50.930;5.334;2023-07-20T07:19:53;2.65;;;2.45;;
10269;SDS011;70826;50.930;5.334;2023-07-20T07:22:23;2.50;;;2.20;;
10269;SDS011;70826;50.930;5.334;2023-07-20T07:24:51;2.30;;;2.20;;
10269;SDS011;70826;50.930;5.334;2023-07-20T07:27:17;2.67;;;2.47;;
10269;SDS011;70826;50.930;5.334;2023-07-20T07:29:44;2.60;;;2.40;;
10269;SDS011;70826;50.930;5.334;2023-07-20T07:32:10;2.50;;;2.30;;
10269;SDS011;70826;50.930;5.334;2023-07-20T07:34:38;2.67;;;2.47;;
10269;SDS011;70826;50.930;5.334;2023-07-20T07:37:06;2.80;;;2.55;;
10269;SDS011;70826;50.930;5.334;2023-07-20T07:39:34;2.70;;;2.50;;
10269;SDS011;70826;50.930;5.334;2023-07-20T07:42:03;2.72;;;2.53;;
10269;SDS011;70826;50.930;5.334;2023-07-20T07:44:31;2.70;;;2.50;;
10269;SDS011;70826;50.930;5.334;2023-07-20T07:46:57;2.78;;;2.58;;
10269;SDS011;70826;50.930;5.334;2023-07-20T07:49:25;2.72;;;2.53;;
10269;SDS011;70826;50.930;5.334;2023-07-20T07:51:53;2.65;;;2.53;;
10269;SDS011;70826;50.930;5.334;2023-07-20T07:54:19;2.80;;;2.60;;
10269;SDS011;70826;50.930;5.334;2023-07-20T07:56:47;2.67;;;2.47;;
10269;SDS011;70826;50.930;5.334;2023-07-20T07:59:13;2.80;;;2.60;;
10269;SDS011;70826;50.930;5.334;2023-07-20T08:01:41;2.53;;;2.33;;
10269;SDS011;70826;50.930;5.334;2023-07-20T08:04:09;2.85;;;2.65;;
10269;SDS011;70826;50.930;5.334;2023-07-20T08:06:38;2.33;;;2.22;;
10269;SDS011;70826;50.930;5.334;2023-07-20T08:09:05;2.88;;;2.67;;
10269;SDS011;70826;50.930;5.334;2023-07-20T08:11:36;2.78;;;2.60;;
10269;SDS011;70826;50.930;5.334;2023-07-20T08:14:04;2.63;;;2.42;;
10269;SDS011;70826;50.930;5.334;2023-07-20T08:16:30;2.60;;;2.40;;
10269;SDS011;70826;50.930;5.334;2023-07-20T08:18:59;2.55;;;2.35;;
10269;SDS011;70826;50.930;5.334;2023-07-20T08:21:27;2.67;;;2.47;;
10269;SDS011;70826;50.930;5.334;2023-07-20T08:23:54;2.55;;;2.35;;
10269;SDS011;70826;50.930;5.334;2023-07-20T08:26:23;2.78;;;2.58;;
10269;SDS011;70826;50.930;5.334;2023-07-20T08:28:49;2.80;;;2.60;;
10269;SDS011;70826;50.930;5.334;2023-07-20T08:31:17;2.90;;;2.70;;
10269;SDS011;70826;50.930;5.334;2023-07-20T08:33:43;2.90;;;2.70;;
10269;SDS011;70826;50.930;5.334;2023-07-20T08:36:12;2.90;;;2.70;;
10269;SDS011;70826;50.930;5.334;2023-07-20T08:38:38;2.97;;;2.78;;
10269;SDS011;70826;50.930;5.334;2023-07-20T08:41:03;2.92;;;2.72;;
10269;SDS011;70826;50.930;5.334;2023-07-20T08:43:29;2.53;;;2.40;;
10269;SDS011;70826;50.930;5.334;2023-07-20T08:45:59;3.20;;;3.00;;
10269;SDS011;70826;50.930;5.334;2023-07-20T08:48:31;3.20;;;2.97;;
10269;SDS011;70826;50.930;5.334;2023-07-20T08:51:01;2.65;;;2.47;;
10269;SDS011;70826;50.930;5.334;2023-07-20T08:53:32;2.75;;;2.55;;
10269;SDS011;70826;50.930;5.334;2023-07-20T08:55:59;2.90;;;2.70;;
10269;SDS011;70826;50.930;5.334;2023-07-20T08:58:26;2.90;;;2.70;;
10269;SDS011;70826;50.930;5.334;2023-07-20T09:00:53;2.65;;;2.50;;
10269;SDS011;70826;50.930;5.334;2023-07-20T09:03:20;2.67;;;2.50;;
10269;SDS011;70826;50.930;5.334;2023-07-20T09:05:49;2.80;;;2.60;;
10269;SDS011;70826;50.930;5.334;2023-07-20T09:08:18;2.67;;;2.47;;
10269;SDS011;70826;50.930;5.334;2023-07-20T09:10:45;2.63;;;2.47;;
10269;SDS011;70826;50.930;5.334;2023-07-20T09:13:16;2.70;;;2.50;;
10269;SDS011;70826;50.930;5.334;2023-07-20T09:15:48;2.80;;;2.60;;
10269;SDS011;70826;50.930;5.334;2023-07-20T09:18:28;2.55;;;2.42;;
10269;SDS011;70826;50.930;5.334;2023-07-20T09:21:04;2.80;;;2.60;;
10269;SDS011;70826;50.930;5.334;2023-07-20T09:23:37;2.80;;;2.60;;
10269;SDS011;70826;50.930;5.334;2023-07-20T09:26:13;2.90;;;2.70;;
10269;SDS011;70826;50.930;5.334;2023-07-20T09:28:51;2.78;;;2.58;;
10269;SDS011;70826;50.930;5.334;2023-07-20T09:31:21;2.88;;;2.65;;
10269;SDS011;70826;50.930;5.334;2023-07-20T09:33:47;2.80;;;2.60;;
10269;SDS011;70826;50.930;5.334;2023-07-20T09:36:14;2.83;;;2.63;;
10269;SDS011;70826;50.930;5.334;2023-07-20T09:38:45;2.90;;;2.70;;
10269;SDS011;70826;50.930;5.334;2023-07-20T09:41:14;2.42;;;2.33;;
10269;SDS011;70826;50.930;5.334;2023-07-20T09:43:43;2.70;;;2.50;;
10269;SDS011;70826;50.930;5.334;2023-07-20T09:46:10;2.90;;;2.70;;
10269;SDS011;70826;50.930;5.334;2023-07-20T09:48:39;2.55;;;2.45;;
10269;SDS011;70826;50.930;5.334;2023-07-20T09:51:19;2.92;;;2.72;;
10269;SDS011;70826;50.930;5.334;2023-07-20T09:53:50;2.60;;;2.50;;
10269;SDS011;70826;50.930;5.334;2023-07-20T09:56:21;2.65;;;2.45;;
10269;SDS011;70826;50.930;5.334;2023-07-20T09:58:48;2.70;;;2.50;;
10269;SDS011;70826;50.930;5.334;2023-07-20T10:01:18;2.80;;;2.60;;
10269;SDS011;70826;50.930;5.334;2023-07-20T10:03:48;2.92;;;2.72;;
10269;SDS011;70826;50.930;5.334;2023-07-20T10:06:23;2.78;;;2.58;;
10269;SDS011;70826;50.930;5.334;2023-07-20T10:08:52;2.85;;;2.65;;
10269;SDS011;70826;50.930;5.334;2023-07-20T10:11:21;2.70;;;2.50;;
10269;SDS011;70826;50.930;5.334;2023-07-20T10:13:51;2.83;;;2.63;;
10269;SDS011;70826;50.930;5.334;2023-07-20T10:16:28;2.40;;;2.30;;
10269;SDS011;70826;50.930;5.334;2023-07-20T10:19:07;2.50;;;2.33;;
10269;SDS011;70826;50.930;5.334;2023-07-20T10:21:37;2.33;;;2.22;;
10269;SDS011;70826;50.930;5.334;2023-07-20T10:24:14;2.63;;;2.42;;
10269;SDS011;70826;50.930;5.334;2023-07-20T10:26:45;2.63;;;2.47;;
10269;SDS011;70826;50.930;5.334;2023-07-20T10:29:13;2.50;;;2.30;;
10269;SDS011;70826;50.930;5.334;2023-07-20T10:31:44;2.58;;;2.47;;
10269;SDS011;70826;50.930;5.334;2023-07-20T10:34:10;2.55;;;2.45;;
10269;SDS011;70826;50.930;5.334;2023-07-20T10:36:43;2.65;;;2.45;;
10269;SDS011;70826;50.930;5.334;2023-07-20T10:41:50;2.58;;;2.47;;
10269;SDS011;70826;50.930;5.334;2023-07-20T10:44:28;2.50;;;2.40;;
10269;SDS011;70826;50.930;5.334;2023-07-20T10:47:01;2.40;;;2.30;;
10269;SDS011;70826;50.930;5.334;2023-07-20T10:49:30;2.70;;;2.50;;
10269;SDS011;70826;50.930;5.334;2023-07-20T10:51:59;2.38;;;2.28;;
10269;SDS011;70826;50.930;5.334;2023-07-20T10:57:16;2.30;;;2.20;;
10269;SDS011;70826;50.930;5.334;2023-07-20T11:00:06;2.40;;;2.30;;
10269;SDS011;70826;50.930;5.334;2023-07-20T11:02:58;2.60;;;2.40;;
10269;SDS011;70826;50.930;5.334;2023-07-20T11:05:34;2.63;;;2.42;;
10269;SDS011;70826;50.930;5.334;2023-07-20T11:08:10;2.70;;;2.50;;
10269;SDS011;70826;50.930;5.334;2023-07-20T11:11:21;2.45;;;2.30;;
10269;SDS011;70826;50.930;5.334;2023-07-20T11:14:20;2.80;;;2.60;;
10269;SDS011;70826;50.930;5.334;2023-07-20T11:16:52;2.42;;;2.33;;
10269;SDS011;70826;50.930;5.334;2023-07-20T11:19:22;2.50;;;2.40;;
10269;SDS011;70826;50.930;5.334;2023-07-20T11:21:55;2.28;;;2.17;;
10269;SDS011;70826;50.930;5.334;2023-07-20T11:24:24;2.47;;;2.38;;
10269;SDS011;70826;50.930;5.334;2023-07-20T11:26:53;2.30;;;2.20;;
10269;SDS011;70826;50.930;5.334;2023-07-20T11:29:21;2.38;;;2.28;;
10269;SDS011;70826;50.930;5.334;2023-07-20T11:31:48;2.30;;;2.20;;
10269;SDS011;70826;50.930;5.334;2023-07-20T11:34:18;2.53;;;2.42;;
10269;SDS011;70826;50.930;5.334;2023-07-20T11:36:47;2.40;;;2.30;;
10269;SDS011;70826;50.930;5.334;2023-07-20T11:39:15;2.70;;;2.50;;
10269;SDS011;70826;50.930;5.334;2023-07-20T11:41:52;2.33;;;2.17;;
10269;SDS011;70826;50.930;5.334;2023-07-20T11:44:22;2.40;;;2.30;;
10269;SDS011;70826;50.930;5.334;2023-07-20T11:47:02;2.42;;;2.22;;
10269;SDS011;70826;50.930;5.334;2023-07-20T11:49:38;2.50;;;2.40;;
10269;SDS011;70826;50.930;5.334;2023-07-20T11:52:10;2.28;;;2.17;;
10269;SDS011;70826;50.930;5.334;2023-07-20T11:54:41;2.40;;;2.30;;
10269;SDS011;70826;50.930;5.334;2023-07-20T11:57:16;2.33;;;2.22;;
10269;SDS011;70826;50.930;5.334;2023-07-20T12:00:00;2.47;;;2.33;;
10269;SDS011;70826;50.930;5.334;2023-07-20T12:02:34;2.38;;;2.17;;
10269;SDS011;70826;50.930;5.334;2023-07-20T12:05:02;2.15;;;2.05;;
10269;SDS011;70826;50.930;5.334;2023-07-20T12:07:34;2.60;;;2.40;;
10269;SDS011;70826;50.930;5.334;2023-07-20T12:12:32;2.28;;;2.17;;
10269;SDS011;70826;50.930;5.334;2023-07-20T12:17:55;2.38;;;2.28;;
10269;SDS011;70826;50.930;5.334;2023-07-20T12:25:49;2.33;;;2.17;;
10269;SDS011;70826;50.930;5.334;2023-07-20T12:28:16;2.30;;;2.20;;
10269;SDS011;70826;50.930;5.334;2023-07-20T12:30:44;2.22;;;2.13;;
10269;SDS011;70826;50.930;5.334;2023-07-20T12:33:13;2.10;;;2.00;;
10269;SDS011;70826;50.930;5.334;2023-07-20T12:35:44;2.10;;;2.00;;
10269;SDS011;70826;50.930;5.334;2023-07-20T12:38:12;2.40;;;2.30;;
10269;SDS011;70826;50.930;5.334;2023-07-20T12:40:38;2.03;;;1.92;;
10269;SDS011;70826;50.930;5.334;2023-07-20T12:43:05;2.30;;;2.20;;
10269;SDS011;70826;50.930;5.334;2023-07-20T12:45:33;2.20;;;2.10;;
10269;SDS011;70826;50.930;5.334;2023-07-20T12:48:03;2.17;;;2.08;;
10269;SDS011;70826;50.930;5.334;2023-07-20T12:50:32;2.30;;;2.20;;
10269;SDS011;70826;50.930;5.334;2023-07-20T12:52:58;2.25;;;2.15;;
10269;SDS011;70826;50.930;5.334;2023-07-20T12:55:24;2.10;;;2.00;;
10269;SDS011;70826;50.930;5.334;2023-07-20T12:57:50;2.20;;;2.10;;
10269;SDS011;70826;50.930;5.334;2023-07-20T13:00:18;2.03;;;1.92;;
10269;SDS011;70826;50.930;5.334;2023-07-20T13:02:44;2.15;;;2.05;;
10269;SDS011;70826;50.930;5.334;2023-07-20T13:05:15;2.05;;;1.95;;
10269;SDS011;70826;50.930;5.334;2023-07-20T13:07:43;2.40;;;2.20;;
10269;SDS011;70826;50.930;5.334;2023-07-20T13:10:14;2.20;;;2.10;;
10269;SDS011;70826;50.930;5.334;2023-07-20T13:12:41;2.15;;;2.05;;
10269;SDS011;70826;50.930;5.334;2023-07-20T13:15:10;2.28;;;2.08;;
10269;SDS011;70826;50.930;5.334;2023-07-20T13:17:36;2.03;;;1.92;;
10269;SDS011;70826;50.930;5.334;2023-07-20T13:20:04;2.13;;;1.98;;
10269;SDS011;70826;50.930;5.334;2023-07-20T13:22:32;2.03;;;1.92;;
10269;SDS011;70826;50.930;5.334;2023-07-20T13:25:00;2.13;;;2.03;;
10269;SDS011;70826;50.930;5.334;2023-07-20T13:27:27;2.38;;;2.10;;
10269;SDS011;70826;50.930;5.334;2023-07-20T13:29:55;2.10;;;2.00;;
10269;SDS011;70826;50.930;5.334;2023-07-20T13:32:23;2.08;;;1.98;;
10269;SDS011;70826;50.930;5.334;2023-07-20T13:34:52;2.00;;;1.90;;
10269;SDS011;70826;50.930;5.334;2023-07-20T13:37:18;1.95;;;1.85;;
10269;SDS011;70826;50.930;5.334;2023-07-20T13:39:46;2.00;;;1.90;;
10269;SDS011;70826;50.930;5.334;2023-07-20T13:42:16;2.20;;;2.00;;
10269;SDS011;70826;50.930;5.334;2023-07-20T13:44:43;1.90;;;1.80;;
10269;SDS011;70826;50.930;5.334;2023-07-20T13:47:12;1.95;;;1.85;;
10269;SDS011;70826;50.930;5.334;2023-07-20T13:49:40;2.10;;;2.00;;
10269;SDS011;70826;50.930;5.334;2023-07-20T13:52:08;2.00;;;1.90;;
10269;SDS011;70826;50.930;5.334;2023-07-20T13:54:36;2.30;;;2.08;;
10269;SDS011;70826;50.930;5.334;2023-07-20T13:57:03;2.00;;;1.90;;
10269;SDS011;70826;50.930;5.334;2023-07-20T13:59:29;3.95;;;2.20;;
10269;SDS011;70826;50.930;5.334;2023-07-20T14:01:55;6.70;;;2.08;;
10269;SDS011;70826;50.930;5.334;2023-07-20T14:04:21;4.95;;;2.42;;
10269;SDS011;70826;50.930;5.334;2023-07-20T14:06:51;2.90;;;2.15;;
10269;SDS011;70826;50.930;5.334;2023-07-20T14:09:17;2.30;;;2.10;;
10269;SDS011;70826;50.930;5.334;2023-07-20T14:11:43;5.72;;;2.30;;
10269;SDS011;70826;50.930;5.334;2023-07-20T14:14:12;4.03;;;1.98;;
10269;SDS011;70826;50.930;5.334;2023-07-20T14:16:38;3.67;;;2.17;;
10269;SDS011;70826;50.930;5.334;2023-07-20T14:19:04;2.22;;;2.03;;
10269;SDS011;70826;50.930;5.334;2023-07-20T14:21:32;6.00;;;1.90;;
10269;SDS011;70826;50.930;5.334;2023-07-20T14:24:00;3.55;;;2.05;;
10269;SDS011;70826;50.930;5.334;2023-07-20T14:26:31;3.10;;;1.90;;
10269;SDS011;70826;50.930;5.334;2023-07-20T14:29:02;5.00;;;1.75;;
10269;SDS011;70826;50.930;5.334;2023-07-20T14:31:28;3.58;;;1.98;;
10269;SDS011;70826;50.930;5.334;2023-07-20T14:33:56;2.67;;;1.90;;
10269;SDS011;70826;50.930;5.334;2023-07-20T14:36:24;2.75;;;1.80;;
10269;SDS011;70826;50.930;5.334;2023-07-20T14:38:50;2.50;;;1.70;;
10269;SDS011;70826;50.930;5.334;2023-07-20T14:41:18;2.97;;;1.70;;
10269;SDS011;70826;50.930;5.334;2023-07-20T14:43:45;3.55;;;1.83;;
10269;SDS011;70826;50.930;5.334;2023-07-20T14:46:13;5.38;;;2.17;;
10269;SDS011;70826;50.930;5.334;2023-07-20T14:48:39;5.90;;;2.13;;
10269;SDS011;70826;50.930;5.334;2023-07-20T14:51:05;2.95;;;1.90;;
10269;SDS011;70826;50.930;5.334;2023-07-20T14:53:31;5.15;;;1.90;;
10269;SDS011;70826;50.930;5.334;2023-07-20T14:56:04;3.30;;;1.65;;
10269;SDS011;70826;50.930;5.334;2023-07-20T14:58:35;3.00;;;1.67;;
10269;SDS011;70826;50.930;5.334;2023-07-20T15:01:01;4.45;;;2.08;;
10269;SDS011;70826;50.930;5.334;2023-07-20T15:03:30;6.05;;;1.90;;
10269;SDS011;70826;50.930;5.334;2023-07-20T15:05:57;3.83;;;2.00;;
10269;SDS011;70826;50.930;5.334;2023-07-20T15:08:22;4.50;;;2.10;;
10269;SDS011;70826;50.930;5.334;2023-07-20T15:10:53;5.00;;;1.85;;
10269;SDS011;70826;50.930;5.334;2023-07-20T15:13:23;5.15;;;1.88;;
10269;SDS011;70826;50.930;5.334;2023-07-20T15:15:49;2.75;;;1.80;;
10269;SDS011;70826;50.930;5.334;2023-07-20T15:18:17;2.70;;;1.65;;
10269;SDS011;70826;50.930;5.334;2023-07-20T15:20:45;2.45;;;1.75;;
10269;SDS011;70826;50.930;5.334;2023-07-20T15:23:13;3.70;;;1.90;;